Time;durP1;ratioP1;P1;durP2;ratioP2;P2;SDS_P1;SDS_P2;PMS_P1;PMS_P2;Temp;Humidity;BMP_temperature;BMP_pressure;BME280_temperature;BME280_humidity;BME280_pressure;Samples;Min_cycle;Max_cycle;Signal;HPM_P1;HPM_P2
2021/03/09 00:02:07;;;;;;;53.45;31.05;;;3.70;76.40;;;;;;5042420;28;20534;-68
2021/03/09 00:04:33;;;;;;;41.22;24.90;;;3.90;76.80;;;;;;5040763;28;20030;-78
2021/03/09 00:06:59;;;;;;;52.95;29.00;;;3.90;76.40;;;;;;5038728;28;20356;-70
2021/03/09 00:09:25;;;;;;;58.90;33.88;;;3.80;75.80;;;;;;5040850;28;20021;-77
2021/03/09 00:11:52;;;;;;;73.68;40.70;;;3.80;76.00;;;;;;5039586;28;20023;-69
2021/03/09 00:14:18;;;;;;;54.88;28.88;;;3.70;76.20;;;;;;5041286;28;20168;-76
2021/03/09 00:16:44;;;;;;;118.32;58.85;;;3.70;77.10;;;;;;5041158;28;20022;-77
2021/03/09 00:19:10;;;;;;;76.28;41.15;;;3.40;77.50;;;;;;5042368;28;20512;-68
2021/03/09 00:21:36;;;;;;;57.58;32.53;;;3.40;77.80;;;;;;5041680;28;20364;-76
2021/03/09 00:24:02;;;;;;;45.35;27.02;;;3.40;78.40;;;;;;5040577;28;20399;-69
2021/03/09 00:26:28;;;;;;;36.03;19.85;;;3.50;78.20;;;;;;5039325;28;20407;-77
2021/03/09 00:28:54;;;;;;;37.88;21.50;;;3.40;78.50;;;;;;5038514;28;20033;-72
2021/03/09 00:31:20;;;;;;;45.28;24.38;;;3.40;78.20;;;;;;5041714;28;20032;-69
2021/03/09 00:33:45;;;;;;;58.60;32.45;;;3.30;78.90;;;;;;5042624;28;20464;-79
2021/03/09 00:36:11;;;;;;;69.35;37.97;;;3.20;79.00;;;;;;5042243;28;20071;-76
2021/03/09 00:38:37;;;;;;;65.00;35.22;;;2.90;80.20;;;;;;5039624;28;20021;-73
2021/03/09 00:41:03;;;;;;;66.78;36.08;;;2.90;81.10;;;;;;5040719;28;20029;-69
2021/03/09 00:43:29;;;;;;;101.88;48.47;;;2.80;81.20;;;;;;5038992;28;20080;-78
2021/03/09 00:45:55;;;;;;;62.20;32.67;;;2.90;81.60;;;;;;5041778;28;20010;-76
2021/03/09 00:48:21;;;;;;;43.03;24.02;;;2.90;81.70;;;;;;5040730;28;20076;-77
2021/03/09 00:50:47;;;;;;;122.30;56.30;;;3.00;81.70;;;;;;5038976;28;20479;-77
2021/03/09 00:53:13;;;;;;;54.13;31.55;;;3.00;82.10;;;;;;5041468;28;20091;-69
2021/03/09 00:55:39;;;;;;;113.70;53.17;;;2.90;81.80;;;;;;5039494;28;20025;-72
2021/03/09 00:58:05;;;;;;;69.60;37.65;;;3.00;81.80;;;;;;5039305;28;20387;-78
2021/03/09 01:00:31;;;;;;;60.92;35.80;;;3.10;81.50;;;;;;5041070;28;20061;-69
2021/03/09 01:02:57;;;;;;;60.08;30.85;;;3.00;81.60;;;;;;5039023;28;20017;-70
2021/03/09 01:05:24;;;;;;;58.80;32.80;;;2.90;82.20;;;;;;5039033;28;20532;-69
2021/03/09 01:07:50;;;;;;;64.43;36.35;;;3.00;82.30;;;;;;5037028;28;20064;-69
2021/03/09 01:10:17;;;;;;;58.17;31.38;;;3.00;82.10;;;;;;5039035;28;20025;-68
2021/03/09 01:12:43;;;;;;;59.75;33.60;;;3.10;81.90;;;;;;5040693;28;20440;-77
2021/03/09 01:15:10;;;;;;;113.63;51.30;;;3.30;81.70;;;;;;5040048;28;20025;-68
2021/03/09 01:17:36;;;;;;;95.63;43.63;;;3.30;80.90;;;;;;5038263;28;20479;-69
2021/03/09 01:20:07;;;;;;;81.43;40.15;;;3.30;81.10;;;;;;5038889;28;20021;-76
2021/03/09 01:22:33;;;;;;;37.40;23.45;;;3.30;81.00;;;;;;5041047;28;20012;-78
2021/03/09 01:24:59;;;;;;;48.90;26.70;;;3.20;81.70;;;;;;5038738;28;20630;-68
2021/03/09 01:27:25;;;;;;;36.15;21.73;;;3.20;82.00;;;;;;5039914;28;20045;-68
2021/03/09 01:29:51;;;;;;;128.90;51.78;;;3.30;82.40;;;;;;5039421;28;20064;-73
2021/03/09 01:32:17;;;;;;;95.95;42.55;;;3.40;81.60;;;;;;5037835;28;20033;-78
2021/03/09 01:34:43;;;;;;;140.52;56.42;;;3.40;81.10;;;;;;5038598;28;20411;-78
2021/03/09 01:37:09;;;;;;;125.80;51.50;;;3.40;81.20;;;;;;5039837;28;20356;-67
2021/03/09 01:39:35;;;;;;;240.63;87.25;;;3.50;80.70;;;;;;5039956;28;20092;-79
2021/03/09 01:42:01;;;;;;;175.73;67.65;;;3.40;81.40;;;;;;5038845;28;20029;-73
2021/03/09 01:44:28;;;;;;;60.17;28.42;;;3.40;81.00;;;;;;5037610;28;20026;-79
2021/03/09 01:46:59;;;;;;;53.13;24.77;;;3.50;81.50;;;;;;5037078;28;20037;-67
2021/03/09 01:49:27;;;;;;;333.55;116.03;;;3.60;80.80;;;;;;5040398;28;20041;-69
2021/03/09 01:51:53;;;;;;;178.85;64.28;;;3.60;80.60;;;;;;5038672;28;20022;-79
2021/03/09 01:54:20;;;;;;;212.45;76.85;;;3.50;81.00;;;;;;5038313;28;20030;-69
2021/03/09 01:56:45;;;;;;;99.50;40.78;;;3.50;81.10;;;;;;5038755;28;20475;-75
2021/03/09 01:59:13;;;;;;;147.77;55.65;;;3.40;81.00;;;;;;5037794;28;20052;-79
2021/03/09 02:01:39;;;;;;;353.65;115.00;;;3.40;81.00;;;;;;5037198;28;20116;-69
2021/03/09 02:04:06;;;;;;;342.95;110.32;;;3.40;81.50;;;;;;5038758;28;20029;-79
2021/03/09 02:06:34;;;;;;;160.20;58.40;;;3.50;81.00;;;;;;5039943;28;20406;-77
2021/03/09 02:09:00;;;;;;;224.38;77.78;;;3.40;81.10;;;;;;5038784;28;20064;-76
2021/03/09 02:12:07;;;;;;;210.43;76.18;;;3.40;81.60;;;;;;5037203;28;20060;-74
2021/03/09 02:14:51;;;;;;;261.13;93.28;;;3.40;81.40;;;;;;5038812;28;20001;-70
2021/03/09 02:17:41;;;;;;;351.65;125.13;;;3.50;81.80;;;;;;5036238;28;20026;-72
2021/03/09 02:20:54;;;;;;;246.57;92.18;;;3.40;82.20;;;;;;5040531;28;20002;-75
2021/03/09 02:23:49;;;;;;;200.07;76.20;;;3.40;80.80;;;;;;5016251;28;20034;-68
2021/03/09 02:26:24;;;;;;;187.00;72.38;;;3.40;81.60;;;;;;5016600;28;20026;-69
2021/03/09 02:29:17;;;;;;;185.13;72.80;;;3.50;81.50;;;;;;5016777;28;20415;-68
2021/03/09 02:31:47;;;;;;;277.23;98.97;;;3.40;80.80;;;;;;5020936;28;20022;-77
2021/03/09 02:34:17;;;;;;;212.93;83.70;;;3.40;81.50;;;;;;5019273;28;20033;-77
2021/03/09 02:36:45;;;;;;;172.90;70.97;;;3.40;81.90;;;;;;5021087;28;20515;-77
2021/03/09 02:39:13;;;;;;;36.72;20.17;;;3.30;82.20;;;;;;5018744;28;20092;-78
2021/03/09 02:41:49;;;;;;;33.80;19.65;;;3.20;81.90;;;;;;5019662;28;20034;-77
2021/03/09 02:44:22;;;;;;;38.70;21.65;;;2.80;82.60;;;;;;5021969;28;20018;-69
2021/03/09 02:46:49;;;;;;;35.70;21.23;;;2.70;83.60;;;;;;5019576;28;20038;-77
2021/03/09 02:49:16;;;;;;;45.20;23.83;;;2.70;83.70;;;;;;5022386;28;20046;-77
2021/03/09 02:51:44;;;;;;;54.80;31.00;;;2.60;84.30;;;;;;5021229;28;20410;-77
2021/03/09 02:54:13;;;;;;;59.55;36.33;;;2.60;84.70;;;;;;5019832;28;20030;-70
2021/03/09 02:56:39;;;;;;;61.35;37.30;;;2.70;85.10;;;;;;5019042;28;20026;-69
2021/03/09 02:59:08;;;;;;;71.93;43.75;;;2.60;84.90;;;;;;5035986;28;20021;-70
2021/03/09 03:01:36;;;;;;;73.07;37.83;;;2.70;84.60;;;;;;5039677;28;20495;-77
2021/03/09 03:04:05;;;;;;;56.13;30.75;;;2.70;84.60;;;;;;5042319;28;20025;-78
2021/03/09 03:06:36;;;;;;;39.45;22.67;;;2.70;85.80;;;;;;5039897;28;20393;-67
2021/03/09 03:09:02;;;;;;;41.70;25.60;;;2.60;85.20;;;;;;5040656;28;20361;-68
2021/03/09 03:11:29;;;;;;;32.40;19.77;;;2.50;85.70;;;;;;5041251;28;20021;-81
2021/03/09 03:13:56;;;;;;;32.10;18.40;;;2.30;86.50;;;;;;5042281;28;20017;-69
2021/03/09 03:16:24;;;;;;;35.38;20.38;;;2.20;87.40;;;;;;5041410;28;20075;-78
2021/03/09 03:18:52;;;;;;;30.27;18.92;;;2.30;87.20;;;;;;5041712;28;20064;-67
2021/03/09 03:21:19;;;;;;;28.42;18.88;;;2.30;87.40;;;;;;5042322;28;20013;-67
2021/03/09 03:23:45;;;;;;;31.63;18.77;;;2.30;87.80;;;;;;5042855;28;20021;-67
2021/03/09 03:26:12;;;;;;;27.40;16.58;;;2.10;87.40;;;;;;5043530;28;20017;-76
2021/03/09 03:28:43;;;;;;;28.88;17.58;;;2.30;87.40;;;;;;5043533;28;20063;-77
2021/03/09 03:31:09;;;;;;;30.20;18.45;;;2.20;87.50;;;;;;5042585;28;20053;-66
2021/03/09 03:33:35;;;;;;;30.77;18.73;;;2.00;88.40;;;;;;5041429;28;20029;-76
2021/03/09 03:36:05;;;;;;;29.83;18.77;;;2.00;88.80;;;;;;5041830;28;20493;-75
2021/03/09 03:38:39;;;;;;;28.63;17.48;;;2.00;88.70;;;;;;5042353;28;20033;-77
2021/03/09 03:41:06;;;;;;;31.40;18.05;;;2.00;89.00;;;;;;5041709;28;19994;-67
2021/03/09 03:43:32;;;;;;;30.70;20.25;;;2.00;89.10;;;;;;5042891;28;20076;-74
2021/03/09 03:45:59;;;;;;;38.30;23.60;;;2.00;88.90;;;;;;5039085;28;20006;-76
2021/03/09 03:48:25;;;;;;;43.20;27.10;;;2.00;89.00;;;;;;5040713;28;20423;-75
2021/03/09 03:50:54;;;;;;;42.35;24.65;;;1.90;89.30;;;;;;5039006;28;20045;-77
2021/03/09 03:53:48;;;;;;;56.00;34.17;;;2.10;89.00;;;;;;5041623;28;20029;-66
2021/03/09 03:56:49;;;;;;;60.13;35.97;;;2.10;88.50;;;;;;5040561;28;20026;-67
2021/03/09 03:59:21;;;;;;;53.50;31.92;;;2.20;88.40;;;;;;5045093;28;20021;-65
2021/03/09 04:01:48;;;;;;;51.20;32.72;;;2.20;88.10;;;;;;5039499;28;20048;-67
2021/03/09 04:04:15;;;;;;;51.88;33.03;;;2.20;88.70;;;;;;5043091;28;20029;-68
2021/03/09 04:06:48;;;;;;;53.65;33.75;;;2.20;88.90;;;;;;5040770;28;20029;-67
2021/03/09 04:09:16;;;;;;;50.28;31.67;;;2.30;88.10;;;;;;5043415;28;20005;-76
2021/03/09 04:11:42;;;;;;;61.78;37.58;;;2.30;88.90;;;;;;5043019;28;20056;-74
2021/03/09 04:14:12;;;;;;;52.85;30.65;;;2.30;87.70;;;;;;5041617;28;20026;-77
2021/03/09 04:16:40;;;;;;;61.22;33.72;;;2.20;87.80;;;;;;5043412;28;20002;-70
2021/03/09 04:19:06;;;;;;;64.35;34.35;;;1.90;88.70;;;;;;5043412;28;20025;-67
2021/03/09 04:21:36;;;;;;;67.07;36.92;;;2.10;88.60;;;;;;5043389;28;20025;-76
2021/03/09 04:24:03;;;;;;;102.50;55.17;;;2.00;88.70;;;;;;5042921;28;20383;-75
2021/03/09 04:26:30;;;;;;;102.78;54.22;;;1.90;89.20;;;;;;5041357;28;20099;-75
2021/03/09 04:28:57;;;;;;;93.78;51.30;;;2.00;90.00;;;;;;5045390;28;20103;-65
2021/03/09 04:31:24;;;;;;;95.25;50.90;;;2.10;89.30;;;;;;5042355;28;20065;-69
2021/03/09 04:33:51;;;;;;;89.10;48.97;;;2.00;89.80;;;;;;5043008;28;20022;-68
2021/03/09 04:36:18;;;;;;;60.85;36.65;;;2.10;90.00;;;;;;5041226;28;20063;-70
2021/03/09 04:38:46;;;;;;;60.47;34.95;;;2.00;89.40;;;;;;5043026;28;20016;-77
2021/03/09 04:41:12;;;;;;;59.33;33.63;;;2.00;89.40;;;;;;5042894;28;20020;-69
2021/03/09 04:43:38;;;;;;;54.88;29.38;;;2.00;89.70;;;;;;5043685;28;20009;-74
2021/03/09 04:46:05;;;;;;;65.22;36.00;;;2.00;89.40;;;;;;5042856;28;20368;-66
2021/03/09 04:48:31;;;;;;;74.88;40.90;;;2.00;89.70;;;;;;5041544;28;20037;-77
2021/03/09 04:51:02;;;;;;;67.97;37.60;;;2.00;89.80;;;;;;5042705;28;20521;-77
2021/03/09 04:53:29;;;;;;;80.93;42.35;;;2.00;90.10;;;;;;5043090;28;20069;-75
2021/03/09 04:55:59;;;;;;;53.33;29.02;;;2.00;90.00;;;;;;5042906;28;20032;-76
2021/03/09 04:58:26;;;;;;;50.35;28.58;;;2.00;89.90;;;;;;5043245;28;20026;-77
2021/03/09 05:00:55;;;;;;;51.70;27.02;;;1.90;89.80;;;;;;5042443;28;20056;-76
2021/03/09 05:03:23;;;;;;;52.38;27.52;;;1.70;90.20;;;;;;5042716;28;20100;-77
2021/03/09 05:05:49;;;;;;;46.67;26.25;;;1.70;90.70;;;;;;5041319;28;20419;-74
2021/03/09 05:08:15;;;;;;;52.63;28.58;;;1.70;90.80;;;;;;5040564;28;20028;-65
2021/03/09 05:10:41;;;;;;;50.63;28.00;;;1.70;90.60;;;;;;5040638;28;20045;-68
2021/03/09 05:13:07;;;;;;;49.35;26.38;;;1.80;90.40;;;;;;5040068;28;20077;-65
2021/03/09 05:15:33;;;;;;;54.95;29.20;;;1.70;90.40;;;;;;5040954;28;20025;-75
2021/03/09 05:17:59;;;;;;;54.42;28.40;;;1.70;90.30;;;;;;5040097;28;20375;-77
2021/03/09 05:20:25;;;;;;;53.65;32.95;;;1.80;90.30;;;;;;5042521;28;20036;-68
2021/03/09 05:22:51;;;;;;;51.15;27.33;;;1.80;90.50;;;;;;5041478;28;20026;-67
2021/03/09 05:25:18;;;;;;;62.40;39.03;;;1.80;90.50;;;;;;5041969;28;20021;-76
2021/03/09 05:27:47;;;;;;;61.05;34.72;;;1.80;90.30;;;;;;5041390;28;20036;-77
2021/03/09 05:30:15;;;;;;;57.90;34.92;;;1.80;90.30;;;;;;5042175;28;20033;-70
2021/03/09 05:32:42;;;;;;;60.20;32.17;;;1.80;90.60;;;;;;5040884;28;20022;-72
2021/03/09 05:35:08;;;;;;;51.42;27.20;;;1.80;90.30;;;;;;5041647;28;20052;-71
2021/03/09 05:37:34;;;;;;;58.13;28.55;;;1.80;90.60;;;;;;5041245;28;20081;-70
2021/03/09 05:40:00;;;;;;;52.83;29.13;;;1.80;90.70;;;;;;5041509;28;20022;-76
2021/03/09 05:42:26;;;;;;;52.13;27.33;;;1.80;90.80;;;;;;5041344;28;20021;-77
2021/03/09 05:44:53;;;;;;;57.15;30.33;;;1.80;90.80;;;;;;5040376;28;20052;-66
2021/03/09 05:47:18;;;;;;;65.65;33.22;;;1.90;91.40;;;;;;5041489;28;20375;-68
2021/03/09 05:49:48;;;;;;;100.32;46.42;;;1.90;90.70;;;;;;5038918;28;20411;-75
2021/03/09 05:52:19;;;;;;;104.18;48.47;;;2.00;90.50;;;;;;5040861;28;20431;-77
2021/03/09 05:54:46;;;;;;;95.82;49.72;;;2.00;90.40;;;;;;5038938;28;20029;-70
2021/03/09 05:57:12;;;;;;;103.22;52.10;;;2.00;90.50;;;;;;5040904;28;20052;-76
2021/03/09 05:59:39;;;;;;;200.93;83.78;;;2.00;90.90;;;;;;5041791;28;20041;-68
2021/03/09 06:02:05;;;;;;;169.55;68.63;;;1.90;91.00;;;;;;5039228;28;20159;-77
2021/03/09 06:04:33;;;;;;;95.07;47.35;;;2.00;91.10;;;;;;5043245;28;20029;-77
2021/03/09 06:06:59;;;;;;;71.75;38.40;;;1.90;90.90;;;;;;5043581;28;20041;-74
2021/03/09 06:09:38;;;;;;;62.17;34.83;;;1.90;91.00;;;;;;5044610;28;20021;-72
2021/03/09 06:12:10;;;;;;;63.72;37.25;;;2.00;91.10;;;;;;5045656;28;20029;-76
2021/03/09 06:14:59;;;;;;;49.63;30.85;;;2.00;91.40;;;;;;5046696;28;20096;-65
2021/03/09 06:17:27;;;;;;;53.13;31.00;;;1.90;91.50;;;;;;5046120;28;20033;-72
2021/03/09 06:19:54;;;;;;;51.10;31.63;;;2.00;91.40;;;;;;5048750;28;20028;-66
2021/03/09 06:22:37;;;;;;;49.08;31.38;;;2.10;91.20;;;;;;5043968;28;20048;-65
2021/03/09 06:25:06;;;;;;;46.80;30.23;;;2.30;91.10;;;;;;5046705;28;20033;-66
2021/03/09 06:27:33;;;;;;;48.35;31.45;;;2.30;90.90;;;;;;5044201;28;20026;-69
2021/03/09 06:30:00;;;;;;;49.17;32.40;;;2.50;91.30;;;;;;5042742;28;20033;-76
2021/03/09 06:32:27;;;;;;;61.28;36.15;;;2.50;91.20;;;;;;5045767;28;20052;-65
2021/03/09 06:34:56;;;;;;;65.90;37.78;;;2.50;91.70;;;;;;5044526;28;19998;-73
2021/03/09 06:37:25;;;;;;;76.00;42.47;;;2.70;91.90;;;;;;5044795;28;20068;-65
2021/03/09 06:39:59;;;;;;;96.85;51.28;;;2.80;91.80;;;;;;5046824;28;20029;-71
2021/03/09 06:42:38;;;;;;;139.65;71.38;;;2.80;91.60;;;;;;5046193;28;20029;-73
2021/03/09 06:45:15;;;;;;;143.95;73.82;;;2.90;91.40;;;;;;5045669;28;20471;-78
2021/03/09 06:47:47;;;;;;;119.90;65.22;;;3.00;91.30;;;;;;5043886;28;20005;-67
2021/03/09 06:50:19;;;;;;;103.18;56.20;;;3.10;91.00;;;;;;5043611;28;20152;-76
2021/03/09 06:53:06;;;;;;;84.55;49.53;;;3.20;90.50;;;;;;5044343;28;20012;-72
2021/03/09 06:55:33;;;;;;;82.13;46.25;;;3.30;90.30;;;;;;5044643;28;20036;-69
2021/03/09 06:58:07;;;;;;;80.47;46.03;;;3.50;90.30;;;;;;5045151;28;20033;-72
2021/03/09 07:00:34;;;;;;;98.10;55.40;;;3.60;90.10;;;;;;5043063;28;20540;-73
2021/03/09 07:03:00;;;;;;;112.85;66.78;;;3.70;90.10;;;;;;5042108;28;20021;-67
2021/03/09 07:05:26;;;;;;;82.43;47.95;;;3.70;89.30;;;;;;5045738;28;20022;-66
2021/03/09 07:07:51;;;;;;;49.83;28.85;;;3.70;87.40;;;;;;5044770;28;20017;-64
2021/03/09 07:10:19;;;;;;;51.85;32.42;;;3.60;86.40;;;;;;5044901;28;20025;-65
2021/03/09 07:12:47;;;;;;;47.67;29.70;;;3.60;88.90;;;;;;5033310;28;20033;-65
2021/03/09 07:15:18;;;;;;;50.13;29.23;;;3.60;87.90;;;;;;5024481;28;20022;-65
2021/03/09 07:17:46;;;;;;;65.78;32.55;;;3.90;87.50;;;;;;5017915;28;20034;-70
2021/03/09 07:20:15;;;;;;;78.93;42.63;;;3.80;84.80;;;;;;5020398;28;20060;-65
2021/03/09 07:22:44;;;;;;;37.42;22.98;;;3.90;85.00;;;;;;5020311;28;20496;-65
2021/03/09 07:25:18;;;;;;;37.50;18.83;;;4.00;83.80;;;;;;5019652;28;20026;-65
2021/03/09 07:28:02;;;;;;;35.15;20.23;;;4.20;83.30;;;;;;5020240;28;20032;-71
2021/03/09 07:30:30;;;;;;;41.90;23.23;;;4.40;83.30;;;;;;5020673;28;20038;-67
2021/03/09 07:32:58;;;;;;;28.52;17.73;;;4.50;82.10;;;;;;5020381;28;20018;-76
2021/03/09 07:35:28;;;;;;;34.13;19.30;;;4.60;81.10;;;;;;5019363;28;20076;-64
2021/03/09 07:37:55;;;;;;;25.77;17.13;;;4.60;80.70;;;;;;5017662;28;20026;-65
2021/03/09 07:40:23;;;;;;;28.33;17.15;;;4.70;83.20;;;;;;5022218;28;20023;-72
2021/03/09 07:42:49;;;;;;;46.13;21.77;;;4.80;82.90;;;;;;5019927;28;20017;-72
2021/03/09 07:45:20;;;;;;;76.35;32.25;;;4.90;80.20;;;;;;5022600;28;20079;-70
2021/03/09 07:47:50;;;;;;;69.45;30.60;;;5.10;79.20;;;;;;5019534;28;20017;-64
2021/03/09 07:50:17;;;;;;;33.15;18.90;;;5.10;80.40;;;;;;5017472;28;20046;-66
2021/03/09 07:53:16;;;;;;;47.47;22.00;;;5.40;79.40;;;;;;5017667;28;20026;-66
2021/03/09 07:55:43;;;;;;;44.50;26.35;;;5.60;75.30;;;;;;5018544;28;20022;-67
2021/03/09 07:58:17;;;;;;;49.35;26.05;;;5.50;75.30;;;;;;5019320;28;20104;-72
2021/03/09 08:00:49;;;;;;;53.38;30.02;;;5.20;75.50;;;;;;5021342;28;20105;-73
2021/03/09 08:03:23;;;;;;;40.80;21.92;;;5.10;75.70;;;;;;5022701;28;20025;-67
2021/03/09 08:05:59;;;;;;;82.05;40.40;;;5.30;76.50;;;;;;5023896;28;20099;-66
2021/03/09 08:08:38;;;;;;;60.22;31.50;;;5.40;75.90;;;;;;5025678;28;20041;-74
2021/03/09 08:11:24;;;;;;;105.45;48.75;;;5.30;76.30;;;;;;5024401;28;20018;-77
2021/03/09 08:14:05;;;;;;;29.48;18.60;;;5.30;75.60;;;;;;5025018;28;20100;-66
2021/03/09 08:16:44;;;;;;;27.00;16.27;;;5.20;75.20;;;;;;5024843;28;20025;-69
2021/03/09 08:19:37;;;;;;;84.63;41.88;;;5.30;75.40;;;;;;5024284;28;20038;-65
2021/03/09 08:22:07;;;;;;;28.30;17.17;;;5.40;74.50;;;;;;5023971;28;20099;-67
2021/03/09 08:24:42;;;;;;;36.90;21.05;;;5.80;74.30;;;;;;5025525;28;20006;-74
2021/03/09 08:27:29;;;;;;;30.67;18.13;;;5.80;71.60;;;;;;5023310;28;20021;-67
2021/03/09 08:30:26;;;;;;;35.58;19.67;;;6.10;71.70;;;;;;5024443;28;20030;-65
2021/03/09 08:32:51;;;;;;;43.58;25.45;;;6.10;74.70;;;;;;5025821;28;20419;-66
2021/03/09 08:35:18;;;;;;;41.17;25.17;;;6.20;71.30;;;;;;5024726;28;20057;-73
2021/03/09 08:37:48;;;;;;;51.72;32.90;;;6.00;70.60;;;;;;5025105;28;20035;-73
2021/03/09 08:40:16;;;;;;;39.58;25.23;;;6.00;71.10;;;;;;5024038;28;20021;-70
2021/03/09 08:43:01;;;;;;;38.15;23.15;;;5.90;70.30;;;;;;5017569;28;20026;-73
2021/03/09 08:45:39;;;;;;;47.47;29.63;;;6.10;72.20;;;;;;5021346;28;20018;-65
2021/03/09 08:48:06;;;;;;;24.30;16.23;;;6.10;73.70;;;;;;5022386;28;20022;-73
2021/03/09 08:50:38;;;;;;;23.95;15.95;;;;;;;;;;5020976;28;20057;-73
2021/03/09 08:53:04;;;;;;;23.33;15.52;;;6.90;70.90;;;;;;5024180;28;20009;-73
2021/03/09 08:55:30;;;;;;;23.65;16.25;;;7.40;70.00;;;;;;5025202;28;20415;-65
2021/03/09 08:57:57;;;;;;;23.65;16.05;;;7.10;65.50;;;;;;5024065;28;20061;-73
2021/03/09 09:00:23;;;;;;;32.28;20.52;;;7.00;67.10;;;;;;5021957;28;20029;-65
2021/03/09 09:02:49;;;;;;;24.92;15.95;;;7.10;70.40;;;;;;5025964;28;20026;-74
2021/03/09 09:05:16;;;;;;;23.73;14.57;;;7.60;67.80;;;;;;5036029;28;20503;-74
2021/03/09 09:07:44;;;;;;;21.70;14.60;;;8.00;67.80;;;;;;5036893;28;20382;-70
2021/03/09 09:10:16;;;;;;;27.65;17.75;;;8.10;64.90;;;;;;5037276;28;20026;-64
2021/03/09 09:12:44;;;;;;;24.92;15.73;;;8.20;67.60;;;;;;5037559;28;20045;-70
2021/03/09 09:15:13;;;;;;;37.28;26.13;;;8.20;64.00;;;;;;5036860;28;20043;-67
2021/03/09 09:17:42;;;;;;;21.75;15.35;;;8.20;62.10;;;;;;5036117;28;20104;-68
2021/03/09 09:20:30;;;;;;;23.00;15.93;;;8.20;64.70;;;;;;5036014;28;20025;-73
2021/03/09 09:23:09;;;;;;;29.35;20.65;;;8.20;62.10;;;;;;5037363;28;20364;-66
2021/03/09 09:25:37;;;;;;;22.17;14.27;;;8.10;62.80;;;;;;5038318;28;20026;-67
2021/03/09 09:28:04;;;;;;;18.38;13.82;;;8.40;66.40;;;;;;5035041;28;20021;-68
2021/03/09 09:30:39;;;;;;;21.98;14.52;;;8.60;63.20;;;;;;5034969;28;20044;-66
2021/03/09 09:33:05;;;;;;;24.02;17.13;;;8.60;63.50;;;;;;5035334;28;20029;-66
2021/03/09 09:35:32;;;;;;;19.13;13.93;;;8.80;61.90;;;;;;5035497;28;20101;-65
2021/03/09 09:37:58;;;;;;;19.75;14.10;;;8.60;60.60;;;;;;5027635;28;20132;-66
2021/03/09 09:40:31;;;;;;;23.52;14.95;;;8.70;61.40;;;;;;5027867;28;20068;-71
2021/03/09 09:43:03;;;;;;;21.10;14.32;;;8.70;61.30;;;;;;5037780;28;20376;-70
2021/03/09 09:45:31;;;;;;;18.73;13.45;;;8.70;60.80;;;;;;5038106;28;20029;-72
2021/03/09 09:47:58;;;;;;;18.40;13.07;;;8.70;62.40;;;;;;5038656;28;20022;-67
2021/03/09 09:50:25;;;;;;;22.20;14.80;;;8.80;61.50;;;;;;5036969;28;20045;-70
2021/03/09 09:52:57;;;;;;;23.08;15.05;;;9.00;62.00;;;;;;5039184;28;20025;-69
2021/03/09 09:55:29;;;;;;;28.75;17.77;;;9.00;60.10;;;;;;5038098;28;20018;-72
2021/03/09 09:57:57;;;;;;;20.30;14.63;;;8.90;60.20;;;;;;5037309;28;20022;-64
2021/03/09 10:00:26;;;;;;;19.33;13.45;;;8.90;60.00;;;;;;5036948;28;20021;-66
2021/03/09 10:03:12;;;;;;;43.03;23.77;;;9.00;61.00;;;;;;5039131;28;20021;-72
2021/03/09 10:05:40;;;;;;;19.05;13.00;;;9.10;62.00;;;;;;5040593;28;20044;-71
2021/03/09 10:08:07;;;;;;;20.95;14.52;;;9.30;60.40;;;;;;5040541;28;20029;-71
2021/03/09 10:10:34;;;;;;;18.30;12.95;;;9.10;59.10;;;;;;5037391;28;20022;-68
2021/03/09 10:13:00;;;;;;;59.45;34.67;;;9.00;59.10;;;;;;5038781;28;20026;-67
2021/03/09 10:15:48;;;;;;;26.98;16.92;;;9.00;58.80;;;;;;5037897;28;20075;-72
2021/03/09 10:18:36;;;;;;;29.25;18.65;;;8.90;59.00;;;;;;5033787;28;20033;-69
2021/03/09 10:21:13;;;;;;;30.33;17.33;;;9.00;59.60;;;;;;5035768;28;20096;-64
2021/03/09 10:23:59;;;;;;;31.15;18.65;;;8.80;58.10;;;;;;5039044;28;20026;-71
2021/03/09 10:26:41;;;;;;;22.20;14.18;;;8.80;59.60;;;;;;5036993;28;20025;-73
2021/03/09 10:29:13;;;;;;;22.70;12.30;;;8.90;58.70;;;;;;5039250;28;20475;-73
2021/03/09 10:31:49;;;;;;;52.30;12.20;;;9.00;59.00;;;;;;5039503;28;20030;-73
2021/03/09 10:34:38;;;;;;;18.45;10.55;;;9.10;60.10;;;;;;5039423;28;20050;-67
2021/03/09 10:37:06;;;;;;;18.63;11.88;;;9.20;59.50;;;;;;5039869;28;20022;-65
2021/03/09 10:39:34;;;;;;;20.95;13.18;;;9.30;58.50;;;;;;5038232;28;20048;-71
2021/03/09 10:42:29;;;;;;;24.95;15.35;;;9.00;58.20;;;;;;5038173;28;20026;-65
2021/03/09 10:44:58;;;;;;;28.25;14.30;;;9.00;59.20;;;;;;5038264;28;20029;-67
2021/03/09 10:47:24;;;;;;;28.90;16.52;;;9.40;58.70;;;;;;5036101;28;20034;-69
2021/03/09 10:49:50;;;;;;;20.55;13.30;;;9.70;58.00;;;;;;5036077;28;20048;-66
2021/03/09 10:52:16;;;;;;;27.42;15.68;;;9.80;57.00;;;;;;5041139;28;20049;-67
2021/03/09 10:54:42;;;;;;;30.02;16.98;;;9.80;56.40;;;;;;5041457;28;20079;-69
2021/03/09 10:57:11;;;;;;;21.02;13.88;;;10.00;55.00;;;;;;5040834;28;20006;-69
2021/03/09 10:59:38;;;;;;;19.45;13.27;;;10.00;54.60;;;;;;5040763;28;20076;-71
2021/03/09 11:02:08;;;;;;;25.05;16.05;;;10.30;55.00;;;;;;5039668;28;20089;-71
2021/03/09 11:04:35;;;;;;;19.63;14.57;;;10.10;53.40;;;;;;5044255;28;20040;-65
2021/03/09 11:07:01;;;;;;;17.35;11.40;;;10.20;53.60;;;;;;5041546;28;20032;-69
2021/03/09 11:09:27;;;;;;;14.35;10.30;;;10.30;55.20;;;;;;5042346;28;20044;-70
2021/03/09 11:11:53;;;;;;;14.50;10.48;;;10.50;53.80;;;;;;5041486;28;20025;-70
2021/03/09 11:14:19;;;;;;;16.42;10.25;;;10.50;53.20;;;;;;5041744;28;20079;-66
2021/03/09 11:16:45;;;;;;;16.55;10.60;;;10.60;54.20;;;;;;5040829;28;20032;-70
2021/03/09 11:19:11;;;;;;;19.23;13.43;;;10.50;53.00;;;;;;5040688;28;20037;-66
2021/03/09 11:21:37;;;;;;;16.23;12.38;;;10.30;51.50;;;;;;5039855;28;20052;-66
2021/03/09 11:24:03;;;;;;;13.95;9.85;;;10.00;51.50;;;;;;5045778;28;20032;-68
2021/03/09 11:26:30;;;;;;;18.20;11.18;;;10.20;51.10;;;;;;5044177;28;20030;-70
2021/03/09 11:28:57;;;;;;;13.25;9.32;;;10.20;51.70;;;;;;5044646;28;20033;-66
2021/03/09 11:31:23;;;;;;;15.80;10.15;;;10.40;53.90;;;;;;5042220;28;20014;-71
2021/03/09 11:33:50;;;;;;;14.07;9.75;;;10.50;52.60;;;;;;5039960;28;20045;-66
2021/03/09 11:36:16;;;;;;;18.48;12.10;;;10.60;54.10;;;;;;5036635;28;20028;-67
2021/03/09 11:38:46;;;;;;;16.63;10.95;;;10.70;51.10;;;;;;5037121;28;20025;-67
2021/03/09 11:41:13;;;;;;;46.35;25.00;;;10.60;51.50;;;;;;5037974;28;20029;-66
2021/03/09 11:43:40;;;;;;;19.30;11.77;;;10.40;50.10;;;;;;5037414;28;20029;-68
2021/03/09 11:46:06;;;;;;;66.05;32.85;;;10.60;54.40;;;;;;5037765;28;20007;-65
2021/03/09 11:48:32;;;;;;;31.27;11.40;;;10.40;50.00;;;;;;5036882;28;20109;-70
2021/03/09 11:50:58;;;;;;;25.40;15.63;;;10.50;50.60;;;;;;5037449;28;20085;-69
2021/03/09 11:53:25;;;;;;;22.23;13.75;;;10.30;50.60;;;;;;5043223;28;20017;-71
2021/03/09 11:55:51;;;;;;;38.67;22.20;;;10.50;51.50;;;;;;5040501;28;20024;-64
2021/03/09 11:58:18;;;;;;;19.00;12.20;;;10.20;52.50;;;;;;5037170;28;20018;-64
2021/03/09 12:00:43;;;;;;;36.92;21.65;;;10.40;53.30;;;;;;5038363;28;20422;-66
2021/03/09 12:03:09;;;;;;;23.80;16.20;;;10.30;52.70;;;;;;5039432;28;20021;-65
2021/03/09 12:05:35;;;;;;;17.38;11.90;;;10.40;52.80;;;;;;5040913;28;20023;-71
2021/03/09 12:08:01;;;;;;;20.98;14.38;;;10.50;51.90;;;;;;5042804;28;20021;-65
2021/03/09 12:10:28;;;;;;;18.92;13.25;;;10.40;50.90;;;;;;5043333;28;20022;-71
2021/03/09 12:12:54;;;;;;;39.22;21.90;;;10.40;53.00;;;;;;5039839;28;20036;-71
2021/03/09 12:15:20;;;;;;;17.05;12.25;;;10.20;50.50;;;;;;5040636;28;20491;-67
2021/03/09 12:17:46;;;;;;;18.70;13.13;;;10.20;51.70;;;;;;5039269;28;20013;-70
2021/03/09 12:20:12;;;;;;;16.65;10.80;;;10.20;53.20;;;;;;5037813;28;20025;-67
2021/03/09 12:22:38;;;;;;;17.77;11.77;;;10.20;53.60;;;;;;5036212;28;20036;-68
2021/03/09 12:25:05;;;;;;;18.60;13.48;;;10.20;52.30;;;;;;5035472;28;20029;-71
2021/03/09 12:27:31;;;;;;;16.35;11.00;;;10.10;52.30;;;;;;5036898;28;20037;-68
2021/03/09 12:29:57;;;;;;;14.73;10.38;;;10.10;54.20;;;;;;5037513;28;20028;-73
2021/03/09 12:32:23;;;;;;;15.32;11.27;;;10.20;53.50;;;;;;5036003;28;20374;-65
2021/03/09 12:34:50;;;;;;;16.60;11.93;;;10.10;54.60;;;;;;5036469;28;20079;-67
2021/03/09 12:37:16;;;;;;;45.67;31.27;;;10.20;53.00;;;;;;5037588;28;20032;-65
2021/03/09 12:39:42;;;;;;;30.90;18.77;;;9.90;52.70;;;;;;5035087;28;20040;-71
2021/03/09 12:42:08;;;;;;;23.42;14.48;;;9.90;52.60;;;;;;5037433;28;20383;-65
2021/03/09 12:44:34;;;;;;;19.58;12.50;;;9.80;53.40;;;;;;5036654;28;20021;-72
2021/03/09 12:47:00;;;;;;;18.73;11.93;;;9.90;54.40;;;;;;5040426;28;20021;-66